createdAt,value
2023-03-29T00:00:16.852Z,98863.44
2023-03-29T00:02:48.806Z,98884.44
2023-03-29T00:05:25.523Z,98868.00
2023-03-29T00:07:54.406Z,98875.50
2023-03-29T00:10:24.208Z,98864.84
2023-03-29T00:12:52.734Z,98868.69
2023-03-29T06:24:16.557Z,98795.13
2023-03-29T06:26:45.205Z,98801.22
2023-03-29T06:29:12.752Z,98802.44
2023-03-29T06:31:40.984Z,98815.78
2023-03-29T06:34:08.434Z,98801.94
2023-03-29T06:36:35.813Z,98811.34
2023-03-29T06:39:04.095Z,98809.66
2023-03-29T06:41:31.680Z,98808.16
2023-03-29T06:43:59.110Z,98802.19
2023-03-29T06:46:27.211Z,98818.88
2023-03-29T06:48:54.571Z,98814.69
2023-03-29T06:51:23.554Z,98817.41
2023-03-29T06:53:50.976Z,98806.09
2023-03-29T06:56:18.365Z,98810.88
2023-03-29T06:58:47.076Z,98803.06
2023-03-29T07:01:14.510Z,98811.00
2023-03-29T07:03:44.776Z,98805.38
2023-03-29T07:06:15.488Z,98798.88
2023-03-29T07:08:47.525Z,98800.09
2023-03-29T07:11:17.944Z,98790.00
2023-03-29T07:13:46.294Z,98786.84
2023-03-29T07:16:14.293Z,98789.88
2023-03-29T07:18:44.343Z,98788.56
2023-03-29T07:21:13.363Z,98787.31
2023-03-29T07:23:41.103Z,98800.22
2023-03-29T07:26:09.946Z,98801.53
2023-03-29T07:28:39.549Z,98808.13
2023-03-29T07:31:11.726Z,98817.91
2023-03-29T07:33:39.952Z,98818.63
2023-03-29T07:36:08.630Z,98822.44
2023-03-29T07:38:37.005Z,98821.84
2023-03-29T07:41:08.088Z,98816.06
2023-03-29T07:43:35.852Z,98827.34
2023-03-29T07:46:07.214Z,98826.22
2023-03-29T07:48:37.212Z,98833.13
2023-03-29T07:51:06.422Z,98823.38
2023-03-29T07:53:33.832Z,98831.19
2023-03-29T07:56:01.824Z,98830.72
2023-03-29T07:58:29.718Z,98846.81
2023-03-29T08:01:00.666Z,98839.19
2023-03-29T08:03:28.979Z,98844.41
2023-03-29T08:05:57.002Z,98846.94
2023-03-29T08:08:24.513Z,98846.47
2023-03-29T08:10:52.930Z,98850.81
2023-03-29T08:13:20.514Z,98861.22
2023-03-29T08:15:48.941Z,98864.78
2023-03-29T08:18:16.431Z,98860.75
2023-03-29T08:20:44.377Z,98850.19
2023-03-29T08:23:11.897Z,98857.94
2023-03-29T08:25:39.304Z,98860.59
2023-03-29T08:28:06.926Z,98852.59
2023-03-29T08:30:34.655Z,98851.41
2023-03-29T08:33:02.685Z,98849.16
2023-03-29T08:35:30.093Z,98842.19
2023-03-29T08:37:57.607Z,98843.94
2023-03-29T08:40:30.092Z,98838.84
2023-03-29T08:42:59.920Z,98838.84
2023-03-29T08:45:57.336Z,98836.84
2023-03-29T08:48:44.188Z,98845.03
2023-03-29T08:51:36.773Z,98839.09
2023-03-29T08:54:25.119Z,98842.38
2023-03-29T08:57:00.357Z,98848.19
2023-03-29T08:59:34.652Z,98857.50
2023-03-29T09:02:05.824Z,98857.81
2023-03-29T09:04:39.083Z,98854.25
2023-03-29T09:07:11.242Z,98850.31
2023-03-29T09:09:38.812Z,98852.69
2023-03-29T09:12:48.937Z,98855.03
2023-03-29T09:15:31.129Z,98843.56
2023-03-29T09:18:19.374Z,98845.72
2023-03-29T09:21:33.465Z,98842.00
2023-03-29T09:24:40.888Z,98842.63
2023-03-29T09:27:27.449Z,98840.16
2023-03-29T09:30:32.188Z,98843.22
2023-03-29T09:33:24.965Z,98842.69
2023-03-29T09:36:17.312Z,98831.41
2023-03-29T09:38:51.074Z,98828.94
2023-03-29T09:41:49.129Z,98806.59
2023-03-29T09:44:38.048Z,98836.31
2023-03-29T09:48:06.584Z,98827.91
2023-03-29T09:50:47.402Z,98823.84
2023-03-29T09:53:21.489Z,98813.44
2023-03-29T09:55:52.056Z,98814.53
2023-03-29T09:58:24.718Z,98813.50
2023-03-29T10:00:53.218Z,98810.97
2023-03-29T10:03:29.657Z,98804.66
2023-03-29T10:06:02.760Z,98806.94
2023-03-29T10:08:46.337Z,98810.69
2023-03-29T10:11:33.085Z,98794.03
2023-03-29T10:14:37.142Z,98794.19
2023-03-29T10:17:24.200Z,98796.31
2023-03-29T10:20:04.847Z,98797.19
2023-03-29T10:22:37.983Z,98781.31
2023-03-29T10:25:17.325Z,98779.31
2023-03-29T10:27:47.987Z,98774.59
2023-03-29T10:30:26.225Z,98775.81
2023-03-29T10:33:00.097Z,98777.03
2023-03-29T10:35:41.722Z,98775.31
2023-03-29T10:38:18.786Z,98780.09
2023-03-29T10:40:53.280Z,98773.53
2023-03-29T10:43:35.203Z,98771.66
2023-03-29T10:46:33.078Z,98765.44
2023-03-29T10:49:18.318Z,98762.34
2023-03-29T10:51:49.484Z,98758.50
2023-03-29T10:54:22.517Z,98768.13
2023-03-29T10:56:57.734Z,98754.75
2023-03-29T11:00:01.379Z,98743.63
2023-03-29T11:03:06.101Z,98749.59
2023-03-29T11:06:26.500Z,98739.25
2023-03-29T11:09:23.534Z,98736.09
2023-03-29T11:12:34.759Z,98722.16
2023-03-29T11:16:04.964Z,98722.94
2023-03-29T11:19:07.270Z,98731.66
2023-03-29T11:22:19.874Z,98732.44
2023-03-29T11:25:42.289Z,98734.84
2023-03-29T11:28:45.767Z,98732.03
2023-03-29T11:31:38.837Z,98733.19
2023-03-29T11:35:08.014Z,98724.41
2023-03-29T11:38:19.198Z,98729.41
2023-03-29T11:41:19.968Z,98707.50
2023-03-29T11:44:02.783Z,98723.44
2023-03-29T11:47:20.754Z,98730.47
2023-03-29T11:50:00.904Z,98730.22
2023-03-29T11:52:43.008Z,98733.63
2023-03-29T11:55:26.564Z,98729.16
2023-03-29T11:58:22.532Z,98733.00
2023-03-29T12:01:00.664Z,98727.06
2023-03-29T12:04:24.866Z,98726.50
2023-03-29T12:07:23.180Z,98716.16
2023-03-29T12:10:16.695Z,98715.34
2023-03-29T12:13:19.166Z,98701.16
2023-03-29T12:15:59.951Z,98701.84
2023-03-29T12:18:43.119Z,98702.31
2023-03-29T12:21:21.393Z,98704.66
2023-03-29T12:23:50.680Z,98693.66
2023-03-29T12:26:46.375Z,98702.34
2023-03-29T12:30:02.677Z,98690.41
2023-03-29T12:33:22.216Z,98688.00
2023-03-29T12:36:49.004Z,98683.47
2023-03-29T12:39:20.790Z,98687.00
2023-03-29T12:41:53.601Z,98676.31
2023-03-29T12:44:24.710Z,98673.03
2023-03-29T12:46:58.801Z,98674.09
2023-03-29T12:49:38.267Z,98675.97
2023-03-29T12:52:36.208Z,98686.53
2023-03-29T12:55:48.316Z,98670.19
2023-03-29T12:58:40.141Z,98666.03
2023-03-29T13:01:32.174Z,98654.84
2023-03-29T13:04:17.823Z,98662.06
2023-03-29T13:07:03.460Z,98662.75
2023-03-29T13:09:55.124Z,98662.28
2023-03-29T13:12:46.123Z,98650.53
2023-03-29T13:15:19.284Z,98655.13
2023-03-29T13:18:48.777Z,98659.53
2023-03-29T13:22:10.056Z,98650.84
2023-03-29T13:25:06.267Z,98661.91
2023-03-29T13:28:05.302Z,98661.13
2023-03-29T13:31:01.858Z,98660.41
2023-03-29T13:34:31.123Z,98654.38
2023-03-29T13:37:54.276Z,98663.53
2023-03-29T13:40:40.539Z,98661.25
2023-03-29T13:43:22.439Z,98655.59
2023-03-29T13:45:58.547Z,98656.09
2023-03-29T13:48:35.214Z,98657.38
2023-03-29T13:51:18.964Z,98643.16
2023-03-29T13:55:13.277Z,98643.31
2023-03-29T13:57:56.023Z,98649.78
2023-03-29T14:00:37.172Z,98634.41
2023-03-29T14:03:13.753Z,98640.38
2023-03-29T14:05:56.493Z,98624.38
2023-03-29T14:08:37.505Z,98637.31
2023-03-29T14:11:08.169Z,98637.53
2023-03-29T14:13:35.805Z,98631.19
2023-03-29T14:16:10.630Z,98626.53
2023-03-29T14:18:42.038Z,98621.28
2023-03-29T14:21:14.566Z,98629.13
2023-03-29T14:23:47.986Z,98634.25
2023-03-29T14:26:30.613Z,98629.31
2023-03-29T14:29:02.005Z,98638.78
2023-03-29T14:31:37.918Z,98628.19
2023-03-29T14:34:16.056Z,98626.16
2023-03-29T14:36:49.396Z,98620.41
2023-03-29T14:39:23.396Z,98623.38
2023-03-29T14:41:57.070Z,98619.63
2023-03-29T14:44:31.979Z,98621.06
2023-03-29T14:47:01.877Z,98617.66
2023-03-29T14:49:29.983Z,98606.00
2023-03-29T14:51:58.258Z,98603.81
2023-03-29T14:54:33.752Z,98602.09
2023-03-29T14:57:07.309Z,98604.34
2023-03-29T14:59:56.455Z,98597.53
2023-03-29T15:02:32.829Z,98601.03
2023-03-29T15:05:25.649Z,98594.53
2023-03-29T15:07:56.351Z,98581.84
2023-03-29T15:10:24.349Z,98580.16
2023-03-29T15:12:52.041Z,98582.53
2023-03-29T15:15:20.016Z,98581.50
2023-03-29T15:17:52.291Z,98576.53
2023-03-29T15:20:31.681Z,98582.31
2023-03-29T15:23:09.635Z,98581.44
2023-03-29T15:25:49.485Z,98576.69
2023-03-29T15:28:55.886Z,98574.03
2023-03-29T15:31:42.039Z,98570.59
2023-03-29T15:34:25.146Z,98572.88
2023-03-29T15:36:54.067Z,98562.94
2023-03-29T15:39:21.627Z,98562.34
2023-03-29T15:41:52.955Z,98559.34
2023-03-29T15:44:43.736Z,98546.88
2023-03-29T15:47:12.705Z,98547.16
2023-03-29T15:49:40.619Z,98554.97
2023-03-29T15:52:08.128Z,98557.66
2023-03-29T15:54:37.274Z,98551.56
2023-03-29T15:57:12.586Z,98550.63
2023-03-29T15:59:40.254Z,98557.72
2023-03-29T16:02:12.242Z,98552.44
2023-03-29T16:04:39.700Z,98541.13
2023-03-29T16:07:17.666Z,98539.31
2023-03-29T16:09:46.320Z,98523.22
2023-03-29T16:12:16.395Z,98533.50
2023-03-29T16:14:43.808Z,98537.94
2023-03-29T16:17:11.684Z,98531.63
2023-03-29T16:19:39.234Z,98536.25
2023-03-29T16:22:07.665Z,98540.22
2023-03-29T16:24:36.259Z,98542.75
2023-03-29T16:27:04.145Z,98555.09
2023-03-29T16:29:32.005Z,98556.97
2023-03-29T16:32:00.231Z,98555.28
2023-03-29T16:34:27.873Z,98541.78
2023-03-29T16:36:55.350Z,98535.72
2023-03-29T16:39:22.796Z,98533.50
2023-03-29T16:41:50.553Z,98520.16
2023-03-29T16:44:23.570Z,98515.44
2023-03-29T16:46:54.451Z,98498.13
2023-03-29T16:49:22.508Z,98500.00
2023-03-29T16:51:49.909Z,98503.16
2023-03-29T16:54:18.993Z,98496.66
2023-03-29T16:56:47.238Z,98500.47
2023-03-29T16:59:15.409Z,98506.94
2023-03-29T17:01:43.222Z,98505.16
2023-03-29T17:04:11.644Z,98505.53
2023-03-29T17:06:39.228Z,98498.25
2023-03-29T17:09:07.427Z,98506.31
2023-03-29T17:11:35.026Z,98508.06
2023-03-29T17:14:02.956Z,98506.84
2023-03-29T17:16:30.549Z,98514.16
2023-03-29T17:19:01.456Z,98506.03
2023-03-29T17:21:29.943Z,98525.75
2023-03-29T17:23:57.556Z,98513.97
2023-03-29T17:26:25.052Z,98517.66
2023-03-29T17:28:52.651Z,98525.00
2023-03-29T17:31:20.130Z,98515.53
2023-03-29T17:33:47.741Z,98523.53
2023-03-29T17:36:15.944Z,98529.53
2023-03-29T17:38:43.406Z,98531.91
2023-03-29T17:41:11.209Z,98549.72
2023-03-29T17:43:38.627Z,98571.66
2023-03-29T17:46:06.612Z,98588.25
2023-03-29T17:48:34.686Z,98598.16
2023-03-29T17:51:02.272Z,98605.38
2023-03-29T17:53:29.976Z,98604.59
2023-03-29T17:55:57.405Z,98601.75
2023-03-29T17:58:24.901Z,98596.38
2023-03-29T18:00:52.363Z,98583.56
2023-03-29T18:03:20.094Z,98571.72
2023-03-29T18:05:48.066Z,98561.88
2023-03-29T18:08:16.902Z,98556.16
2023-03-29T18:10:44.378Z,98543.00
2023-03-29T18:13:14.027Z,98539.72
2023-03-29T18:15:44.125Z,98538.81
2023-03-29T18:18:11.705Z,98538.84
2023-03-29T18:20:39.136Z,98542.50
2023-03-29T18:23:06.629Z,98536.75
2023-03-29T18:25:34.170Z,98524.66
2023-03-29T18:28:01.552Z,98551.97
2023-03-29T18:30:28.984Z,98533.34
2023-03-29T18:32:56.542Z,98534.72
2023-03-29T18:35:24.050Z,98525.47
2023-03-29T18:37:52.299Z,98517.09
2023-03-29T18:40:24.757Z,98522.25
2023-03-29T18:42:52.828Z,98531.75
2023-03-29T18:45:21.454Z,98525.81
2023-03-29T18:47:50.960Z,98528.88
2023-03-29T18:50:18.888Z,98528.94
2023-03-29T18:52:46.281Z,98516.91
2023-03-29T18:55:13.668Z,98530.25
2023-03-29T18:57:41.529Z,98532.28
2023-03-29T19:00:13.342Z,98533.78
2023-03-29T19:02:42.025Z,98541.38
2023-03-29T19:05:10.901Z,98544.84
2023-03-29T19:07:38.856Z,98533.59
2023-03-29T19:10:08.464Z,98551.53
2023-03-29T19:12:36.398Z,98555.94
2023-03-29T19:15:04.458Z,98557.41
2023-03-29T19:17:32.215Z,98554.75
2023-03-29T19:19:59.731Z,98534.00
2023-03-29T19:22:27.228Z,98545.78
2023-03-29T19:24:54.609Z,98542.84
2023-03-29T19:27:22.124Z,98531.72
2023-03-29T19:29:49.745Z,98519.81
2023-03-29T19:32:17.165Z,98526.09
2023-03-29T19:34:44.559Z,98522.56
2023-03-29T19:37:12.166Z,98519.41
2023-03-29T19:39:41.128Z,98521.38
2023-03-29T19:42:08.591Z,98516.59
2023-03-29T19:44:38.330Z,98518.13
2023-03-29T19:47:06.668Z,98527.66
2023-03-29T19:49:36.704Z,98526.25
2023-03-29T19:52:05.078Z,98534.19
2023-03-29T19:54:32.927Z,98529.16
2023-03-29T19:57:00.392Z,98526.06
2023-03-29T19:59:28.170Z,98528.06
2023-03-29T20:01:57.007Z,98525.34
2023-03-29T20:04:25.320Z,98529.75
2023-03-29T20:06:52.742Z,98502.34
2023-03-29T20:09:20.315Z,98497.72
2023-03-29T20:11:47.806Z,98480.06
2023-03-29T20:14:15.599Z,98469.50
2023-03-29T20:16:44.178Z,98456.75
2023-03-29T20:19:14.171Z,98476.22
2023-03-29T20:21:41.688Z,98465.25
2023-03-29T20:24:09.845Z,98459.59
2023-03-29T20:26:37.413Z,98453.75
2023-03-29T20:29:04.843Z,98453.56
2023-03-29T20:31:32.307Z,98458.47
2023-03-29T20:33:59.944Z,98458.13
2023-03-29T20:36:30.876Z,98465.25
2023-03-29T20:38:59.378Z,98450.25
2023-03-29T20:41:27.010Z,98447.03
2023-03-29T20:44:00.013Z,98446.94
2023-03-29T20:46:33.558Z,98438.28
2023-03-29T20:49:09.032Z,98444.31
2023-03-29T20:51:38.654Z,98445.47
2023-03-29T20:54:07.788Z,98445.06
2023-03-29T20:56:42.371Z,98446.69
2023-03-29T20:59:10.954Z,98437.47
2023-03-29T21:01:42.498Z,98431.97
2023-03-29T21:04:11.110Z,98435.19
2023-03-29T21:06:41.495Z,98434.75
2023-03-29T21:09:08.923Z,98432.38
2023-03-29T21:11:36.335Z,98421.66
2023-03-29T21:14:04.249Z,98420.94
2023-03-29T21:16:34.040Z,98416.91
2023-03-29T21:19:01.606Z,98411.72
2023-03-29T21:21:30.162Z,98425.16
2023-03-29T21:23:57.565Z,98404.56
2023-03-29T21:26:24.939Z,98412.09
2023-03-29T21:28:52.591Z,98405.41
2023-03-29T21:31:20.156Z,98409.41
2023-03-29T21:33:47.599Z,98397.91
2023-03-29T21:36:15.185Z,98405.84
2023-03-29T21:38:42.672Z,98399.88
2023-03-29T21:41:12.162Z,98399.09
2023-03-29T21:43:40.146Z,98397.94
2023-03-29T21:46:08.573Z,98394.41
2023-03-29T21:48:36.666Z,98390.00
2023-03-29T21:51:06.591Z,98393.59
2023-03-29T21:53:34.629Z,98398.31
2023-03-29T21:56:02.675Z,98387.56
2023-03-29T21:58:30.171Z,98383.25
2023-03-29T22:00:57.622Z,98380.03
2023-03-29T22:03:25.105Z,98375.78
2023-03-29T22:06:03.069Z,98377.72
2023-03-29T22:08:31.456Z,98376.53
2023-03-29T22:10:58.862Z,98376.53
2023-03-29T22:13:28.987Z,98375.69
2023-03-29T22:16:03.866Z,98359.84
2023-03-29T22:18:44.118Z,98369.31
2023-03-29T22:21:22.797Z,98373.25
2023-03-29T22:23:56.084Z,98377.22
2023-03-29T22:26:29.978Z,98368.44
2023-03-29T22:28:59.887Z,98367.69
2023-03-29T22:31:29.521Z,98350.66
2023-03-29T22:33:58.500Z,98359.75
2023-03-29T22:36:31.155Z,98349.44
2023-03-29T22:38:59.136Z,98351.81
2023-03-29T22:41:28.303Z,98349.13
2023-03-29T22:43:59.524Z,98344.78
2023-03-29T22:46:27.365Z,98343.19
2023-03-29T22:48:55.041Z,98344.00
2023-03-29T22:51:22.505Z,98343.13
2023-03-29T22:53:50.046Z,98336.81
2023-03-29T22:56:18.459Z,98339.22
2023-03-29T22:58:46.987Z,98339.56
2023-03-29T23:01:14.491Z,98332.44
2023-03-29T23:03:42.032Z,98328.09
2023-03-29T23:06:09.512Z,98321.34
2023-03-29T23:08:37.230Z,98321.72
2023-03-29T23:11:05.545Z,98315.38
2023-03-29T23:13:33.721Z,98324.06
2023-03-29T23:16:02.530Z,98314.53
2023-03-29T23:18:35.007Z,98316.91
2023-03-29T23:21:05.276Z,98308.19
2023-03-29T23:23:33.703Z,98306.91
2023-03-29T23:26:02.566Z,98314.53
2023-03-29T23:28:30.789Z,98306.50
2023-03-29T23:31:11.613Z,98301.00
2023-03-29T23:33:43.199Z,98294.63
2023-03-29T23:36:16.855Z,98291.44
2023-03-29T23:38:46.988Z,98285.81
2023-03-29T23:41:17.798Z,98288.59
2023-03-29T23:43:47.281Z,98280.88
2023-03-29T23:46:19.042Z,98281.75
2023-03-29T23:48:50.871Z,98274.53
2023-03-29T23:51:23.366Z,98275.25
2023-03-29T23:53:51.484Z,98278.78
